createdAt,value
2018-07-08T00:01:51.253Z,68.49
2018-07-08T00:04:21.125Z,67.80
2018-07-08T00:06:54.995Z,68.03
2018-07-08T00:09:25.399Z,68.71
2018-07-08T00:11:55.439Z,69.06
2018-07-08T00:14:25.589Z,68.73
2018-07-08T00:16:55.393Z,68.75
2018-07-08T00:19:25.416Z,69.50
2018-07-08T00:21:55.677Z,69.03
2018-07-08T00:25:16.345Z,68.71
2018-07-08T00:27:46.251Z,68.65
2018-07-08T00:30:16.130Z,68.53
2018-07-08T00:32:46.096Z,68.85
2018-07-08T00:35:15.899Z,68.25
2018-07-08T00:37:45.818Z,68.84
2018-07-08T00:40:15.690Z,68.63
2018-07-08T00:42:45.830Z,68.48
2018-07-08T00:45:15.885Z,68.64
2018-07-08T00:47:45.812Z,68.58
2018-07-08T00:58:14.885Z,68.58
2018-07-08T01:00:45.241Z,68.91
2018-07-08T01:03:15.042Z,69.20
2018-07-08T01:05:44.889Z,70.34
2018-07-08T01:08:14.750Z,70.70
2018-07-08T01:10:44.686Z,70.92
2018-07-08T01:13:16.509Z,71.73
2018-07-08T01:15:46.347Z,71.83
2018-07-08T01:18:16.185Z,71.82
2018-07-08T01:20:46.391Z,72.15
2018-07-08T01:23:16.280Z,72.13
2018-07-08T01:26:02.792Z,71.96
2018-07-08T01:28:32.850Z,72.41
2018-07-08T01:31:02.659Z,72.49
2018-07-08T01:33:32.583Z,72.23
2018-07-08T01:36:02.418Z,71.87
2018-07-08T01:38:32.466Z,72.15
2018-07-08T01:41:02.278Z,72.35
2018-07-08T01:43:32.171Z,72.14
2018-07-08T01:46:02.182Z,71.72
2018-07-08T01:48:31.957Z,71.51
2018-07-08T01:51:01.821Z,71.49
2018-07-08T01:53:31.752Z,71.25
2018-07-08T01:56:02.133Z,71.11
2018-07-08T01:58:31.973Z,71.42
2018-07-08T02:01:02.253Z,71.20
2018-07-08T02:03:32.436Z,70.84
2018-07-08T02:06:02.653Z,70.64
2018-07-08T02:08:33.298Z,70.76
2018-07-08T02:11:03.121Z,71.03
2018-07-08T02:13:32.899Z,71.06
2018-07-08T02:16:02.952Z,71.42
2018-07-08T02:18:32.844Z,71.11
2018-07-08T02:21:02.746Z,71.87
2018-07-08T02:23:32.549Z,72.88
2018-07-08T02:26:02.428Z,72.28
2018-07-08T02:28:33.145Z,72.92
2018-07-08T02:31:02.958Z,72.24
2018-07-08T02:33:33.322Z,72.53
2018-07-08T02:36:03.663Z,72.73
2018-07-08T02:38:33.962Z,72.63
2018-07-08T02:41:04.156Z,72.54
2018-07-08T02:43:34.012Z,72.34
2018-07-08T02:46:04.114Z,73.17
2018-07-08T02:48:33.982Z,72.99
2018-07-08T02:51:03.841Z,73.48
2018-07-08T02:53:33.712Z,73.17
2018-07-08T02:56:03.567Z,73.62
2018-07-08T02:58:33.348Z,73.19
2018-07-08T03:01:03.145Z,73.45
2018-07-08T03:03:32.940Z,73.41
2018-07-08T03:06:02.804Z,73.46
2018-07-08T03:08:32.972Z,73.79
2018-07-08T03:11:02.817Z,73.81
2018-07-08T03:13:32.606Z,73.68
2018-07-08T03:16:02.431Z,74.47
2018-07-08T03:18:32.245Z,74.41
2018-07-08T03:21:02.007Z,74.29
2018-07-08T03:23:32.755Z,74.30
2018-07-08T03:26:02.622Z,74.37
2018-07-08T03:28:32.762Z,74.15
2018-07-08T03:31:02.541Z,74.77
2018-07-08T03:33:32.369Z,74.89
2018-07-08T03:36:02.365Z,74.35
2018-07-08T03:38:32.198Z,74.78
2018-07-08T03:41:02.095Z,74.61
2018-07-08T03:43:31.908Z,74.25
2018-07-08T03:46:01.705Z,74.30
2018-07-08T03:48:31.612Z,73.84
2018-07-08T03:51:01.693Z,74.20
2018-07-08T03:53:31.534Z,74.88
2018-07-08T03:56:01.352Z,74.95
2018-07-08T03:58:31.176Z,74.79
2018-07-08T04:01:01.088Z,74.73
2018-07-08T04:03:30.900Z,73.29
2018-07-08T04:06:00.708Z,72.78
2018-07-08T04:08:30.550Z,71.85
2018-07-08T04:11:00.378Z,70.22
2018-07-08T04:20:41.876Z,63.57
2018-07-08T04:23:11.694Z,63.29
2018-07-08T04:25:42.143Z,62.31
2018-07-08T04:28:12.658Z,60.86
2018-07-08T04:30:43.155Z,60.55
2018-07-08T04:33:13.505Z,57.97
2018-07-08T04:35:43.898Z,56.59
2018-07-08T04:38:14.274Z,55.12
2018-07-08T04:40:44.639Z,53.83
2018-07-08T04:43:15.070Z,52.97
2018-07-08T04:45:45.559Z,51.60
2018-07-08T04:48:15.856Z,50.40
2018-07-08T04:50:46.212Z,47.65
2018-07-08T04:53:16.615Z,47.78
2018-07-08T04:55:46.990Z,47.36
2018-07-08T04:58:17.388Z,47.88
2018-07-08T05:00:48.412Z,46.51
2018-07-08T05:03:18.966Z,45.15
2018-07-08T05:05:49.363Z,44.25
2018-07-08T05:08:20.099Z,43.55
2018-07-08T05:10:50.815Z,42.01
2018-07-08T05:13:20.862Z,43.23
2018-07-08T05:15:51.065Z,42.64
2018-07-08T05:18:21.185Z,41.19
2018-07-08T05:20:51.275Z,40.03
2018-07-08T05:23:21.314Z,39.38
2018-07-08T05:25:51.407Z,38.15
2018-07-08T05:28:21.621Z,37.67
2018-07-08T05:30:51.721Z,37.54
2018-07-08T05:33:21.775Z,37.84
2018-07-08T05:35:51.845Z,36.70
2018-07-08T05:38:22.027Z,35.24
2018-07-08T05:40:52.111Z,35.02
2018-07-08T05:43:22.117Z,33.78
2018-07-08T05:45:52.239Z,33.83
2018-07-08T05:48:22.682Z,34.11
2018-07-08T05:50:53.213Z,34.53
2018-07-08T05:53:23.331Z,33.72
2018-07-08T05:55:53.445Z,34.85
2018-07-08T05:58:23.483Z,34.82
2018-07-08T06:00:53.565Z,35.44
2018-07-08T06:03:23.735Z,36.64
2018-07-08T06:05:53.845Z,37.45
2018-07-08T06:08:24.223Z,40.02
2018-07-08T06:10:54.801Z,41.49
2018-07-08T06:13:25.207Z,42.22
2018-07-08T06:15:55.689Z,43.78
2018-07-08T06:18:26.103Z,44.17
2018-07-08T06:20:56.573Z,45.12
2018-07-08T06:23:27.311Z,45.75
2018-07-08T06:25:57.766Z,46.30
2018-07-08T06:28:28.336Z,46.29
2018-07-08T06:30:58.765Z,47.76
2018-07-08T06:33:29.560Z,47.10
2018-07-08T06:35:59.923Z,48.26
2018-07-08T06:38:30.253Z,47.48
2018-07-08T06:41:00.999Z,47.32
2018-07-08T06:43:31.397Z,47.89
2018-07-08T06:46:02.054Z,48.39
2018-07-08T06:48:32.581Z,48.68
2018-07-08T06:51:02.947Z,47.79
2018-07-08T06:53:33.296Z,47.96
2018-07-08T06:56:03.675Z,47.39
2018-07-08T06:58:34.029Z,47.65
2018-07-08T07:01:04.347Z,47.71
2018-07-08T07:03:34.648Z,48.38
2018-07-08T07:06:05.302Z,48.12
2018-07-08T07:08:35.625Z,47.91
2018-07-08T07:11:05.623Z,48.85
2018-07-08T07:13:36.333Z,49.60
2018-07-08T07:16:07.281Z,49.30
2018-07-08T07:18:37.617Z,48.99
2018-07-08T07:21:08.077Z,49.30
2018-07-08T07:23:38.405Z,48.84
2018-07-08T07:26:08.715Z,50.34
2018-07-08T07:28:39.481Z,49.26
2018-07-08T07:31:10.551Z,49.14
2018-07-08T07:33:40.972Z,50.20
2018-07-08T07:36:11.421Z,50.07
2018-07-08T07:38:42.055Z,48.99
2018-07-08T07:41:12.524Z,49.18
2018-07-08T07:43:43.048Z,48.75
2018-07-08T07:46:13.588Z,49.03
2018-07-08T07:48:44.094Z,50.28
2018-07-08T07:51:14.690Z,53.13
2018-07-08T07:53:45.668Z,54.24
2018-07-08T07:56:16.090Z,53.86
2018-07-08T07:58:46.550Z,53.28
2018-07-08T08:01:17.314Z,52.27
2018-07-08T08:03:47.718Z,51.80
2018-07-08T08:06:18.154Z,50.25
2018-07-08T08:08:48.623Z,50.08
2018-07-08T08:12:15.665Z,49.00
2018-07-08T08:14:46.143Z,50.42
2018-07-08T08:17:17.230Z,49.14
2018-07-08T08:19:47.616Z,51.89
2018-07-08T08:22:18.284Z,52.08
2018-07-08T08:24:49.148Z,50.91
2018-07-08T08:27:19.624Z,49.40
2018-07-08T08:29:50.094Z,50.43
2018-07-08T08:32:20.834Z,50.67
2018-07-08T08:34:56.850Z,50.92
2018-07-08T08:37:29.400Z,50.09
2018-07-08T08:39:59.880Z,50.66
2018-07-08T08:42:30.360Z,51.21
2018-07-08T08:45:01.182Z,52.25
2018-07-08T08:47:32.486Z,50.62
2018-07-08T08:50:03.166Z,49.02
2018-07-08T08:52:33.649Z,47.78
2018-07-08T08:55:04.483Z,47.91
2018-07-08T08:57:34.962Z,48.05
2018-07-08T09:00:12.609Z,49.36
2018-07-08T09:03:17.608Z,49.28
2018-07-08T09:05:48.050Z,49.71
2018-07-08T09:08:18.515Z,50.74
2018-07-08T09:10:48.984Z,48.77
2018-07-08T09:13:28.723Z,47.69
2018-07-08T09:15:59.788Z,48.10
2018-07-08T09:18:30.199Z,47.81
2018-07-08T09:21:00.631Z,49.51
2018-07-08T09:23:31.090Z,48.50
2018-07-08T09:26:01.496Z,46.88
2018-07-08T09:28:32.000Z,48.67
2018-07-08T09:31:02.416Z,49.16
2018-07-08T09:33:32.880Z,50.29
2018-07-08T09:36:03.304Z,50.57
2018-07-08T09:38:33.748Z,48.69
2018-07-08T09:41:04.498Z,49.01
2018-07-08T09:43:35.004Z,47.44
2018-07-08T09:46:05.515Z,47.51
2018-07-08T09:48:36.148Z,47.15
2018-07-08T09:51:06.630Z,47.21
2018-07-08T09:53:37.694Z,44.87
2018-07-08T09:56:08.158Z,45.35
2018-07-08T09:58:38.730Z,45.23
2018-07-08T10:01:09.190Z,44.24
2018-07-08T10:03:39.622Z,44.31
2018-07-08T10:06:10.463Z,44.59
2018-07-08T10:08:40.931Z,44.15
2018-07-08T10:11:11.578Z,43.84
2018-07-08T10:13:42.125Z,42.60
2018-07-08T10:16:12.821Z,42.97
2018-07-08T10:18:43.502Z,44.00
2018-07-08T10:21:14.181Z,42.20
2018-07-08T10:23:44.685Z,41.15
2018-07-08T10:26:15.082Z,42.23
2018-07-08T10:28:45.530Z,43.71
2018-07-08T10:31:15.925Z,42.94
2018-07-08T10:33:58.089Z,44.16
2018-07-08T10:36:28.709Z,43.24
2018-07-08T10:38:59.295Z,42.25
2018-07-08T10:41:29.712Z,41.01
2018-07-08T10:44:00.171Z,39.20
2018-07-08T10:46:30.670Z,42.42
2018-07-08T10:49:01.290Z,41.14
2018-07-08T10:51:31.765Z,40.88
2018-07-08T10:54:02.635Z,38.09
2018-07-08T10:56:33.091Z,38.70
2018-07-08T10:59:04.259Z,40.28
2018-07-08T11:01:34.697Z,39.69
2018-07-08T11:04:05.345Z,37.77
2018-07-08T11:06:35.790Z,37.52
2018-07-08T11:09:07.735Z,37.82
2018-07-08T11:11:38.294Z,38.87
2018-07-08T11:14:08.706Z,37.05
2018-07-08T11:16:39.069Z,41.06
2018-07-08T11:19:09.543Z,41.66
2018-07-08T11:21:39.946Z,41.29
2018-07-08T11:31:22.220Z,41.50
2018-07-08T11:33:52.666Z,42.28
2018-07-08T11:36:23.402Z,40.16
2018-07-08T11:38:54.060Z,40.35
2018-07-08T11:41:25.112Z,37.36
2018-07-08T11:43:55.645Z,38.03
2018-07-08T11:46:26.425Z,37.91
2018-07-08T11:48:56.777Z,36.11
2018-07-08T11:51:26.877Z,34.00
2018-07-08T11:53:57.033Z,34.50
2018-07-08T11:56:27.285Z,35.15
2018-07-08T11:58:57.453Z,34.97
2018-07-08T12:01:28.677Z,36.16
2018-07-08T12:03:59.526Z,37.59
2018-07-08T12:06:30.006Z,36.59
2018-07-08T12:09:00.810Z,36.24
2018-07-08T12:11:30.886Z,34.50
2018-07-08T12:14:01.335Z,38.12
2018-07-08T12:16:31.841Z,37.16
2018-07-08T12:19:01.957Z,37.72
2018-07-08T12:21:32.857Z,36.66
2018-07-08T12:24:03.317Z,37.21
2018-07-08T12:26:33.853Z,37.70
2018-07-08T12:29:04.325Z,38.68
2018-07-08T12:31:34.797Z,38.91
2018-07-08T12:34:05.287Z,37.00
2018-07-08T12:36:35.963Z,37.60
2018-07-08T12:39:10.821Z,38.48
2018-07-08T12:41:41.378Z,39.19
2018-07-08T12:44:11.792Z,38.96
2018-07-08T12:46:42.325Z,40.42
2018-07-08T12:49:12.386Z,37.84
2018-07-08T12:51:42.827Z,37.06
2018-07-08T12:54:13.531Z,37.38
2018-07-08T12:56:43.975Z,37.98
2018-07-08T12:59:14.421Z,41.02
2018-07-08T13:01:44.839Z,40.16
2018-07-08T13:04:15.267Z,40.03
2018-07-08T13:06:46.314Z,37.82
2018-07-08T13:09:17.935Z,35.74
2018-07-08T13:11:48.653Z,35.07
2018-07-08T13:14:19.038Z,34.80
2018-07-08T13:16:49.568Z,33.01
2018-07-08T13:19:19.627Z,33.25
2018-07-08T13:21:49.733Z,32.89
2018-07-08T13:24:19.876Z,32.50
2018-07-08T13:26:50.019Z,33.52
2018-07-08T13:29:20.093Z,33.83
2018-07-08T13:31:50.165Z,33.91
2018-07-08T13:34:20.893Z,33.91
2018-07-08T13:36:50.991Z,36.16
2018-07-08T13:39:21.157Z,37.09
2018-07-08T13:41:51.629Z,35.92
2018-07-08T13:44:22.033Z,36.57
2018-07-08T13:46:52.501Z,36.61
2018-07-08T13:49:23.395Z,36.86
2018-07-08T13:51:53.855Z,37.46
2018-07-08T13:54:24.474Z,36.63
2018-07-08T13:56:55.039Z,36.39
2018-07-08T13:59:25.447Z,35.46
2018-07-08T14:01:56.311Z,36.90
2018-07-08T14:04:26.815Z,36.66
2018-07-08T14:06:57.328Z,35.86
2018-07-08T14:09:27.799Z,35.24
2018-07-08T14:11:58.613Z,35.27
2018-07-08T14:14:29.251Z,35.42
2018-07-08T14:16:59.876Z,35.28
2018-07-08T14:19:30.262Z,35.49
2018-07-08T14:22:01.162Z,35.90
2018-07-08T14:24:31.749Z,37.19
2018-07-08T14:27:02.256Z,34.24
2018-07-08T14:29:33.218Z,34.49
2018-07-08T14:32:04.175Z,34.51
2018-07-08T14:34:34.706Z,35.51
2018-07-08T14:37:05.214Z,36.00
2018-07-08T14:39:35.858Z,35.46
2018-07-08T14:42:06.490Z,36.14
2018-07-08T14:44:37.016Z,37.99
2018-07-08T14:47:07.580Z,38.05
2018-07-08T14:49:38.052Z,38.25
2018-07-08T14:52:08.992Z,38.99
2018-07-08T14:54:39.564Z,38.70
2018-07-08T14:57:10.192Z,39.18
2018-07-08T14:59:40.578Z,39.25
2018-07-08T15:02:10.998Z,38.94
2018-07-08T15:04:41.453Z,39.09
2018-07-08T15:07:12.292Z,37.73
2018-07-08T15:09:42.721Z,36.75
2018-07-08T15:12:13.465Z,36.23
2018-07-08T15:14:44.254Z,36.97
2018-07-08T15:17:14.680Z,38.82
2018-07-08T15:19:45.405Z,36.68
2018-07-08T15:22:15.828Z,37.54
2018-07-08T15:24:46.308Z,37.77
2018-07-08T15:27:17.102Z,37.44
2018-07-08T15:29:47.537Z,38.12
2018-07-08T15:32:18.401Z,38.64
2018-07-08T15:34:48.795Z,37.74
2018-07-08T15:37:19.387Z,36.56
2018-07-08T15:39:49.842Z,38.00
2018-07-08T15:42:20.276Z,39.24
2018-07-08T15:44:51.324Z,38.63
2018-07-08T15:47:22.612Z,38.09
2018-07-08T15:49:53.412Z,37.34
2018-07-08T15:52:23.986Z,38.06
2018-07-08T15:54:54.850Z,36.41
2018-07-08T15:57:25.338Z,36.15
2018-07-08T15:59:56.125Z,35.72
2018-07-08T16:02:26.509Z,34.79
2018-07-08T16:04:57.220Z,35.54
2018-07-08T16:07:29.373Z,34.13
2018-07-08T16:09:59.942Z,35.02
2018-07-08T16:12:33.328Z,35.77
2018-07-08T16:15:04.025Z,34.72
2018-07-08T16:17:34.692Z,35.72
2018-07-08T16:20:05.879Z,35.44
2018-07-08T16:22:36.268Z,35.87
2018-07-08T16:25:07.149Z,34.16
2018-07-08T16:27:38.283Z,35.15
2018-07-08T16:30:08.768Z,35.57
2018-07-08T16:32:39.477Z,37.42
2018-07-08T16:35:09.874Z,35.88
2018-07-08T16:37:40.614Z,35.18
2018-07-08T16:40:14.274Z,34.81
2018-07-08T16:42:45.679Z,34.83
2018-07-08T16:45:16.086Z,35.99
2018-07-08T16:47:46.943Z,36.79
2018-07-08T16:50:17.523Z,36.17
2018-07-08T16:52:50.618Z,38.29
2018-07-08T16:56:14.554Z,38.66
2018-07-08T16:58:45.824Z,39.97
2018-07-08T17:01:16.158Z,39.76
2018-07-08T17:03:47.801Z,39.84
2018-07-08T17:06:17.980Z,40.69
2018-07-08T17:08:48.725Z,41.25
2018-07-08T17:11:19.200Z,41.53
2018-07-08T17:13:49.991Z,41.09
2018-07-08T17:16:20.425Z,40.13
2018-07-08T17:18:51.309Z,38.88
2018-07-08T17:21:21.725Z,37.27
2018-07-08T17:23:52.161Z,38.30
2018-07-08T17:26:22.669Z,40.08
2018-07-08T17:28:53.665Z,39.39
2018-07-08T17:31:24.690Z,38.24
2018-07-08T17:33:55.165Z,38.59
2018-07-08T17:36:26.009Z,38.98
2018-07-08T17:38:56.446Z,38.83
2018-07-08T17:41:26.885Z,39.51
2018-07-08T17:43:57.795Z,39.85
2018-07-08T17:46:28.320Z,39.77
2018-07-08T17:48:59.246Z,39.77
2018-07-08T17:51:29.671Z,40.03
2018-07-08T17:54:00.495Z,40.07
2018-07-08T17:56:31.199Z,40.86
2018-07-08T17:59:01.583Z,41.30
2018-07-08T18:01:32.032Z,41.61
2018-07-08T18:04:03.610Z,43.14
2018-07-08T18:06:34.049Z,44.24
2018-07-08T18:09:05.784Z,43.68
2018-07-08T18:11:36.799Z,44.22
2018-07-08T18:14:07.436Z,44.81
2018-07-08T18:16:38.024Z,45.25
2018-07-08T18:19:08.537Z,44.76
2018-07-08T18:21:39.064Z,43.61
2018-07-08T18:24:09.635Z,44.75
2018-07-08T18:26:40.098Z,45.30
2018-07-08T18:29:10.737Z,45.41
2018-07-08T18:31:41.551Z,46.13
2018-07-08T18:34:12.019Z,45.94
2018-07-08T18:36:42.561Z,45.20
2018-07-08T18:39:13.088Z,45.95
2018-07-08T18:42:18.335Z,45.84
2018-07-08T18:44:48.845Z,46.27
2018-07-08T18:47:19.250Z,46.43
2018-07-08T18:49:49.694Z,47.54
2018-07-08T18:52:20.134Z,48.15
2018-07-08T18:58:26.901Z,48.06
2018-07-08T19:00:57.445Z,48.35
2018-07-08T19:03:27.936Z,49.54
2018-07-08T19:05:58.348Z,50.58
2018-07-08T19:08:28.742Z,51.62
2018-07-08T19:11:00.042Z,52.64
2018-07-08T19:13:31.102Z,51.76
2018-07-08T19:16:01.580Z,52.66
2018-07-08T19:18:32.013Z,53.12
2018-07-08T19:21:02.428Z,53.05
2018-07-08T19:23:33.015Z,53.85
2018-07-08T19:26:03.455Z,54.42
2018-07-08T19:28:34.171Z,54.57
2018-07-08T19:31:04.655Z,54.16
2018-07-08T19:33:35.071Z,53.87
2018-07-08T19:36:06.372Z,53.94
2018-07-08T19:38:36.818Z,53.79
2018-07-08T19:41:07.331Z,53.84
2018-07-08T19:43:37.826Z,54.50
2018-07-08T19:46:08.423Z,53.84
2018-07-08T19:49:16.535Z,54.15
2018-07-08T19:51:46.947Z,53.77
2018-07-08T19:54:17.419Z,53.29
2018-07-08T19:56:48.069Z,53.33
2018-07-08T19:59:18.521Z,52.74
2018-07-08T20:01:48.952Z,53.60
2018-07-08T20:04:19.451Z,53.62
2018-07-08T20:06:49.952Z,53.73
2018-07-08T20:09:20.363Z,52.97
2018-07-08T20:11:51.281Z,53.86
2018-07-08T20:14:21.695Z,52.79
2018-07-08T20:16:52.133Z,53.33
2018-07-08T20:19:22.523Z,51.89
2018-07-08T20:21:52.972Z,50.73
2018-07-08T20:24:23.613Z,51.06
2018-07-08T20:26:54.385Z,50.36
2018-07-08T20:29:24.795Z,49.90
2018-07-08T20:31:55.407Z,50.32
2018-07-08T20:34:25.841Z,50.73
2018-07-08T20:36:56.357Z,50.19
2018-07-08T20:39:27.627Z,50.08
2018-07-08T20:41:58.395Z,50.10
2018-07-08T20:44:28.801Z,49.41
2018-07-08T20:46:59.557Z,50.16
2018-07-08T20:49:30.133Z,50.49
2018-07-08T20:52:00.629Z,50.39
2018-07-08T20:54:31.367Z,50.28
2018-07-08T20:57:01.870Z,50.61
2018-07-08T20:59:32.316Z,50.98
2018-07-08T21:06:16.859Z,51.84
2018-07-08T21:08:47.343Z,52.23
2018-07-08T21:11:18.137Z,51.63
2018-07-08T21:13:48.695Z,52.35
2018-07-08T21:16:19.289Z,52.56
2018-07-08T21:18:49.787Z,53.10
2018-07-08T21:21:20.975Z,53.56
2018-07-08T21:23:52.811Z,54.52
2018-07-08T21:26:23.283Z,54.23
2018-07-08T21:32:29.779Z,53.68
2018-07-08T21:35:00.307Z,54.39
2018-07-08T21:37:30.999Z,53.77
2018-07-08T21:40:01.435Z,54.84
2018-07-08T21:42:33.349Z,55.66
2018-07-08T21:48:40.985Z,56.42
2018-07-08T21:51:11.504Z,57.40
2018-07-08T21:53:42.030Z,56.36
2018-07-08T21:56:12.500Z,56.72
2018-07-08T21:58:43.275Z,56.94
2018-07-08T22:01:16.842Z,57.26
2018-07-08T22:03:48.039Z,57.40
2018-07-08T22:06:19.422Z,57.61
2018-07-08T22:08:49.812Z,56.76
2018-07-08T22:11:20.225Z,56.87
2018-07-08T22:13:50.890Z,57.07
2018-07-08T22:16:21.328Z,57.57
2018-07-08T22:18:51.716Z,56.37
2018-07-08T22:21:27.124Z,57.78
2018-07-08T22:23:57.594Z,58.44
2018-07-08T22:26:28.031Z,58.35
2018-07-08T22:28:59.131Z,57.89
2018-07-08T22:31:29.903Z,58.25
2018-07-08T22:34:00.387Z,57.06
2018-07-08T22:36:30.940Z,56.75
2018-07-08T22:39:01.342Z,56.52
2018-07-08T22:41:32.062Z,56.42
2018-07-08T22:44:02.874Z,56.40
2018-07-08T22:46:33.316Z,56.09
2018-07-08T22:49:04.091Z,55.98
2018-07-08T22:51:34.569Z,55.47
2018-07-08T22:54:05.019Z,56.04
2018-07-08T22:56:35.409Z,56.05
2018-07-08T22:59:05.837Z,55.92
2018-07-08T23:01:52.887Z,56.87
2018-07-08T23:04:23.343Z,57.08
2018-07-08T23:06:54.139Z,57.19
2018-07-08T23:09:24.597Z,57.01
2018-07-08T23:11:54.988Z,56.36
2018-07-08T23:14:26.667Z,55.89
2018-07-08T23:16:57.833Z,55.87
2018-07-08T23:19:28.285Z,55.42
2018-07-08T23:21:58.988Z,56.52
2018-07-08T23:24:29.854Z,56.78
2018-07-08T23:27:00.305Z,58.02
2018-07-08T23:29:31.038Z,57.51
2018-07-08T23:32:02.747Z,57.81
2018-07-08T23:34:34.556Z,57.28
2018-07-08T23:37:05.463Z,57.95
2018-07-08T23:39:36.059Z,58.51
2018-07-08T23:42:06.463Z,58.19
2018-07-08T23:44:37.114Z,57.57
2018-07-08T23:47:08.352Z,56.08
2018-07-08T23:49:38.797Z,54.97
2018-07-08T23:52:09.561Z,54.34
2018-07-08T23:54:40.320Z,55.61
2018-07-08T23:57:11.167Z,56.50
2018-07-08T23:59:42.308Z,55.18
